sensor_id;sensor_type;location;lat;lon;timestamp;P1;durP1;ratioP1;P2;durP2;ratioP2
45944;SDS011;31655;48.972;10.686;2022-10-16T00:01:26;5.00;;;2.72;;
45944;SDS011;31655;48.972;10.686;2022-10-16T00:03:54;5.90;;;2.70;;
45944;SDS011;31655;48.972;10.686;2022-10-16T00:06:21;2.85;;;1.90;;
45944;SDS011;31655;48.972;10.686;2022-10-16T00:08:48;4.13;;;2.38;;
45944;SDS011;31655;48.972;10.686;2022-10-16T00:11:15;4.13;;;1.88;;
45944;SDS011;31655;48.972;10.686;2022-10-16T00:13:47;3.95;;;1.70;;
45944;SDS011;31655;48.972;10.686;2022-10-16T00:16:15;1.70;;;1.50;;
45944;SDS011;31655;48.972;10.686;2022-10-16T00:18:41;6.00;;;2.10;;
45944;SDS011;31655;48.972;10.686;2022-10-16T00:21:09;3.35;;;2.17;;
45944;SDS011;31655;48.972;10.686;2022-10-16T00:23:37;2.53;;;2.00;;
45944;SDS011;31655;48.972;10.686;2022-10-16T00:26:04;2.60;;;2.20;;
45944;SDS011;31655;48.972;10.686;2022-10-16T00:28:31;5.43;;;2.13;;
45944;SDS011;31655;48.972;10.686;2022-10-16T00:30:57;3.95;;;2.42;;
45944;SDS011;31655;48.972;10.686;2022-10-16T00:33:23;10.35;;;2.60;;
45944;SDS011;31655;48.972;10.686;2022-10-16T00:35:50;4.45;;;2.10;;
45944;SDS011;31655;48.972;10.686;2022-10-16T00:38:16;3.83;;;2.13;;
45944;SDS011;31655;48.972;10.686;2022-10-16T00:40:42;2.22;;;1.90;;
45944;SDS011;31655;48.972;10.686;2022-10-16T00:43:32;8.73;;;2.85;;
45944;SDS011;31655;48.972;10.686;2022-10-16T00:46:09;4.18;;;2.60;;
45944;SDS011;31655;48.972;10.686;2022-10-16T00:48:36;2.90;;;2.55;;
45944;SDS011;31655;48.972;10.686;2022-10-16T00:51:02;2.90;;;2.28;;
45944;SDS011;31655;48.972;10.686;2022-10-16T00:53:30;4.75;;;2.63;;
45944;SDS011;31655;48.972;10.686;2022-10-16T00:55:57;7.93;;;2.67;;
45944;SDS011;31655;48.972;10.686;2022-10-16T00:58:23;5.10;;;2.55;;
45944;SDS011;31655;48.972;10.686;2022-10-16T01:00:48;6.82;;;3.22;;
45944;SDS011;31655;48.972;10.686;2022-10-16T01:03:31;4.72;;;2.70;;
45944;SDS011;31655;48.972;10.686;2022-10-16T01:06:04;3.20;;;2.55;;
45944;SDS011;31655;48.972;10.686;2022-10-16T01:08:47;5.70;;;2.37;;
45944;SDS011;31655;48.972;10.686;2022-10-16T01:17:12;4.57;;;2.53;;
45944;SDS011;31655;48.972;10.686;2022-10-16T01:22:37;5.20;;;2.60;;
45944;SDS011;31655;48.972;10.686;2022-10-16T01:25:19;4.70;;;2.40;;
45944;SDS011;31655;48.972;10.686;2022-10-16T01:28:04;4.63;;;2.50;;
45944;SDS011;31655;48.972;10.686;2022-10-16T01:30:35;4.57;;;2.92;;
45944;SDS011;31655;48.972;10.686;2022-10-16T01:33:04;6.72;;;2.50;;
45944;SDS011;31655;48.972;10.686;2022-10-16T01:35:49;5.43;;;3.00;;
45944;SDS011;31655;48.972;10.686;2022-10-16T01:41:00;5.53;;;2.90;;
45944;SDS011;31655;48.972;10.686;2022-10-16T01:43:46;8.70;;;2.92;;
45944;SDS011;31655;48.972;10.686;2022-10-16T01:46:18;4.43;;;2.38;;
45944;SDS011;31655;48.972;10.686;2022-10-16T01:48:46;3.03;;;2.35;;
45944;SDS011;31655;48.972;10.686;2022-10-16T01:51:15;7.40;;;3.28;;
45944;SDS011;31655;48.972;10.686;2022-10-16T01:53:43;8.57;;;3.42;;
45944;SDS011;31655;48.972;10.686;2022-10-16T01:56:13;4.88;;;2.65;;
45944;SDS011;31655;48.972;10.686;2022-10-16T01:58:45;6.05;;;2.60;;
45944;SDS011;31655;48.972;10.686;2022-10-16T02:01:15;5.85;;;2.78;;
45944;SDS011;31655;48.972;10.686;2022-10-16T02:03:43;6.90;;;2.75;;
45944;SDS011;31655;48.972;10.686;2022-10-16T02:06:11;5.43;;;3.30;;
45944;SDS011;31655;48.972;10.686;2022-10-16T02:08:37;4.75;;;3.00;;
45944;SDS011;31655;48.972;10.686;2022-10-16T02:11:05;7.65;;;2.40;;
45944;SDS011;31655;48.972;10.686;2022-10-16T02:13:36;3.00;;;2.40;;
45944;SDS011;31655;48.972;10.686;2022-10-16T02:16:07;4.80;;;2.70;;
45944;SDS011;31655;48.972;10.686;2022-10-16T02:18:35;5.85;;;2.65;;
45944;SDS011;31655;48.972;10.686;2022-10-16T02:26:28;6.40;;;2.33;;
45944;SDS011;31655;48.972;10.686;2022-10-16T02:29:02;3.90;;;2.45;;
45944;SDS011;31655;48.972;10.686;2022-10-16T02:31:33;3.10;;;2.50;;
45944;SDS011;31655;48.972;10.686;2022-10-16T02:34:03;8.15;;;2.63;;
45944;SDS011;31655;48.972;10.686;2022-10-16T02:36:30;7.65;;;3.08;;
45944;SDS011;31655;48.972;10.686;2022-10-16T02:38:57;12.23;;;2.80;;
45944;SDS011;31655;48.972;10.686;2022-10-16T02:41:25;4.35;;;2.63;;
45944;SDS011;31655;48.972;10.686;2022-10-16T02:43:51;6.75;;;2.80;;
45944;SDS011;31655;48.972;10.686;2022-10-16T02:46:16;4.38;;;2.75;;
45944;SDS011;31655;48.972;10.686;2022-10-16T02:48:43;7.65;;;2.80;;
45944;SDS011;31655;48.972;10.686;2022-10-16T02:51:08;4.18;;;2.45;;
45944;SDS011;31655;48.972;10.686;2022-10-16T02:53:34;3.65;;;2.65;;
45944;SDS011;31655;48.972;10.686;2022-10-16T02:56:00;5.25;;;2.50;;
45944;SDS011;31655;48.972;10.686;2022-10-16T02:58:25;3.90;;;2.22;;
45944;SDS011;31655;48.972;10.686;2022-10-16T03:00:51;3.80;;;2.85;;
45944;SDS011;31655;48.972;10.686;2022-10-16T03:03:17;3.75;;;2.85;;
45944;SDS011;31655;48.972;10.686;2022-10-16T03:05:43;4.75;;;2.47;;
45944;SDS011;31655;48.972;10.686;2022-10-16T03:08:10;5.72;;;2.67;;
45944;SDS011;31655;48.972;10.686;2022-10-16T03:10:36;6.82;;;3.08;;
45944;SDS011;31655;48.972;10.686;2022-10-16T03:13:02;8.35;;;3.20;;
45944;SDS011;31655;48.972;10.686;2022-10-16T03:15:28;25.05;;;15.75;;
45944;SDS011;31655;48.972;10.686;2022-10-16T03:17:54;23.17;;;14.32;;
45944;SDS011;31655;48.972;10.686;2022-10-16T03:20:20;44.17;;;24.15;;
45944;SDS011;31655;48.972;10.686;2022-10-16T03:22:45;11.52;;;8.05;;
45944;SDS011;31655;48.972;10.686;2022-10-16T03:25:11;15.00;;;6.63;;
45944;SDS011;31655;48.972;10.686;2022-10-16T03:27:37;20.10;;;11.38;;
45944;SDS011;31655;48.972;10.686;2022-10-16T03:30:03;21.92;;;11.95;;
45944;SDS011;31655;48.972;10.686;2022-10-16T03:32:28;36.67;;;19.38;;
45944;SDS011;31655;48.972;10.686;2022-10-16T03:34:54;7.72;;;4.40;;
45944;SDS011;31655;48.972;10.686;2022-10-16T03:37:21;13.82;;;8.88;;
45944;SDS011;31655;48.972;10.686;2022-10-16T03:39:47;10.63;;;6.80;;
45944;SDS011;31655;48.972;10.686;2022-10-16T03:42:12;4.80;;;3.05;;
45944;SDS011;31655;48.972;10.686;2022-10-16T03:44:38;8.18;;;3.20;;
45944;SDS011;31655;48.972;10.686;2022-10-16T03:47:04;4.10;;;3.05;;
45944;SDS011;31655;48.972;10.686;2022-10-16T03:49:30;6.95;;;5.47;;
45944;SDS011;31655;48.972;10.686;2022-10-16T03:51:56;6.18;;;3.42;;
45944;SDS011;31655;48.972;10.686;2022-10-16T03:54:21;5.07;;;3.15;;
45944;SDS011;31655;48.972;10.686;2022-10-16T03:56:47;4.65;;;3.08;;
45944;SDS011;31655;48.972;10.686;2022-10-16T03:59:13;4.68;;;3.50;;
45944;SDS011;31655;48.972;10.686;2022-10-16T04:01:40;3.78;;;3.03;;
45944;SDS011;31655;48.972;10.686;2022-10-16T04:04:06;5.82;;;2.60;;
45944;SDS011;31655;48.972;10.686;2022-10-16T04:06:32;4.80;;;2.92;;
45944;SDS011;31655;48.972;10.686;2022-10-16T04:08:58;4.72;;;2.95;;
45944;SDS011;31655;48.972;10.686;2022-10-16T04:11:24;5.60;;;2.63;;
45944;SDS011;31655;48.972;10.686;2022-10-16T04:13:50;7.85;;;3.28;;
45944;SDS011;31655;48.972;10.686;2022-10-16T04:16:15;5.70;;;3.30;;
45944;SDS011;31655;48.972;10.686;2022-10-16T04:18:41;5.20;;;3.30;;
45944;SDS011;31655;48.972;10.686;2022-10-16T04:21:07;4.82;;;3.13;;
45944;SDS011;31655;48.972;10.686;2022-10-16T04:23:33;4.90;;;2.90;;
45944;SDS011;31655;48.972;10.686;2022-10-16T04:25:59;7.90;;;3.33;;
45944;SDS011;31655;48.972;10.686;2022-10-16T04:28:25;5.18;;;2.75;;
45944;SDS011;31655;48.972;10.686;2022-10-16T04:30:51;6.85;;;2.80;;
45944;SDS011;31655;48.972;10.686;2022-10-16T04:33:17;9.15;;;3.13;;
45944;SDS011;31655;48.972;10.686;2022-10-16T04:35:56;4.03;;;2.55;;
45944;SDS011;31655;48.972;10.686;2022-10-16T04:38:28;3.63;;;2.92;;
45944;SDS011;31655;48.972;10.686;2022-10-16T04:40:55;7.75;;;3.50;;
45944;SDS011;31655;48.972;10.686;2022-10-16T04:43:21;4.43;;;2.85;;
45944;SDS011;31655;48.972;10.686;2022-10-16T04:45:47;4.90;;;2.58;;
45944;SDS011;31655;48.972;10.686;2022-10-16T04:48:15;3.80;;;2.33;;
45944;SDS011;31655;48.972;10.686;2022-10-16T04:50:41;3.33;;;2.85;;
45944;SDS011;31655;48.972;10.686;2022-10-16T04:53:07;3.58;;;2.65;;
45944;SDS011;31655;48.972;10.686;2022-10-16T04:55:33;6.30;;;2.92;;
45944;SDS011;31655;48.972;10.686;2022-10-16T04:57:58;5.60;;;3.20;;
45944;SDS011;31655;48.972;10.686;2022-10-16T05:00:24;3.75;;;2.92;;
45944;SDS011;31655;48.972;10.686;2022-10-16T05:02:50;4.05;;;2.42;;
45944;SDS011;31655;48.972;10.686;2022-10-16T05:05:16;5.40;;;3.10;;
45944;SDS011;31655;48.972;10.686;2022-10-16T05:07:44;7.63;;;3.00;;
45944;SDS011;31655;48.972;10.686;2022-10-16T05:10:10;12.30;;;4.40;;
45944;SDS011;31655;48.972;10.686;2022-10-16T05:12:36;6.32;;;2.75;;
45944;SDS011;31655;48.972;10.686;2022-10-16T05:15:02;3.00;;;2.47;;
45944;SDS011;31655;48.972;10.686;2022-10-16T05:17:28;6.25;;;2.80;;
45944;SDS011;31655;48.972;10.686;2022-10-16T05:19:54;5.32;;;3.55;;
45944;SDS011;31655;48.972;10.686;2022-10-16T05:22:21;5.40;;;2.70;;
45944;SDS011;31655;48.972;10.686;2022-10-16T05:24:47;4.47;;;2.72;;
45944;SDS011;31655;48.972;10.686;2022-10-16T05:27:14;4.43;;;2.80;;
45944;SDS011;31655;48.972;10.686;2022-10-16T05:29:46;5.07;;;3.47;;
45944;SDS011;31655;48.972;10.686;2022-10-16T05:32:14;4.82;;;2.95;;
45944;SDS011;31655;48.972;10.686;2022-10-16T05:34:41;80.55;;;35.05;;
45944;SDS011;31655;48.972;10.686;2022-10-16T05:37:07;74.28;;;35.03;;
45944;SDS011;31655;48.972;10.686;2022-10-16T05:39:33;65.53;;;28.75;;
45944;SDS011;31655;48.972;10.686;2022-10-16T05:41:59;23.23;;;10.55;;
45944;SDS011;31655;48.972;10.686;2022-10-16T05:44:24;18.98;;;8.85;;
45944;SDS011;31655;48.972;10.686;2022-10-16T05:46:50;34.17;;;15.43;;
45944;SDS011;31655;48.972;10.686;2022-10-16T05:49:15;33.03;;;15.68;;
45944;SDS011;31655;48.972;10.686;2022-10-16T05:51:41;21.40;;;12.10;;
45944;SDS011;31655;48.972;10.686;2022-10-16T05:54:07;12.52;;;7.03;;
45944;SDS011;31655;48.972;10.686;2022-10-16T05:56:33;20.52;;;10.73;;
45944;SDS011;31655;48.972;10.686;2022-10-16T05:58:59;18.13;;;11.30;;
45944;SDS011;31655;48.972;10.686;2022-10-16T06:01:24;41.38;;;21.70;;
45944;SDS011;31655;48.972;10.686;2022-10-16T06:03:51;34.90;;;17.15;;
45944;SDS011;31655;48.972;10.686;2022-10-16T06:06:18;18.48;;;9.13;;
45944;SDS011;31655;48.972;10.686;2022-10-16T06:08:48;17.13;;;9.80;;
45944;SDS011;31655;48.972;10.686;2022-10-16T06:11:15;15.07;;;8.13;;
45944;SDS011;31655;48.972;10.686;2022-10-16T06:13:43;35.08;;;20.55;;
45944;SDS011;31655;48.972;10.686;2022-10-16T06:16:11;32.28;;;17.48;;
45944;SDS011;31655;48.972;10.686;2022-10-16T06:18:38;18.80;;;11.38;;
45944;SDS011;31655;48.972;10.686;2022-10-16T06:21:09;17.83;;;10.52;;
45944;SDS011;31655;48.972;10.686;2022-10-16T06:23:36;8.73;;;5.30;;
45944;SDS011;31655;48.972;10.686;2022-10-16T06:26:10;12.68;;;7.40;;
45944;SDS011;31655;48.972;10.686;2022-10-16T06:28:40;9.15;;;5.93;;
45944;SDS011;31655;48.972;10.686;2022-10-16T06:31:07;6.47;;;3.25;;
45944;SDS011;31655;48.972;10.686;2022-10-16T06:33:34;4.43;;;3.30;;
45944;SDS011;31655;48.972;10.686;2022-10-16T06:36:04;5.78;;;4.72;;
45944;SDS011;31655;48.972;10.686;2022-10-16T06:38:32;10.23;;;7.60;;
45944;SDS011;31655;48.972;10.686;2022-10-16T06:40:57;9.15;;;4.97;;
45944;SDS011;31655;48.972;10.686;2022-10-16T06:43:23;4.90;;;3.15;;
45944;SDS011;31655;48.972;10.686;2022-10-16T06:45:50;5.75;;;2.88;;
45944;SDS011;31655;48.972;10.686;2022-10-16T06:48:17;6.30;;;3.10;;
45944;SDS011;31655;48.972;10.686;2022-10-16T06:50:43;3.35;;;1.70;;
45944;SDS011;31655;48.972;10.686;2022-10-16T06:53:09;4.50;;;2.25;;
45944;SDS011;31655;48.972;10.686;2022-10-16T06:55:34;3.90;;;2.60;;
45944;SDS011;31655;48.972;10.686;2022-10-16T06:58:00;5.82;;;2.38;;
45944;SDS011;31655;48.972;10.686;2022-10-16T07:00:26;4.85;;;2.50;;
45944;SDS011;31655;48.972;10.686;2022-10-16T07:02:52;5.70;;;1.90;;
45944;SDS011;31655;48.972;10.686;2022-10-16T07:05:17;5.35;;;2.63;;
45944;SDS011;31655;48.972;10.686;2022-10-16T07:07:43;8.57;;;4.65;;
45944;SDS011;31655;48.972;10.686;2022-10-16T07:10:09;8.80;;;3.28;;
45944;SDS011;31655;48.972;10.686;2022-10-16T07:12:35;4.22;;;1.83;;
45944;SDS011;31655;48.972;10.686;2022-10-16T07:15:00;6.28;;;2.38;;
45944;SDS011;31655;48.972;10.686;2022-10-16T07:17:26;6.65;;;2.20;;
45944;SDS011;31655;48.972;10.686;2022-10-16T07:19:51;3.50;;;2.53;;
45944;SDS011;31655;48.972;10.686;2022-10-16T07:22:18;2.10;;;1.70;;
45944;SDS011;31655;48.972;10.686;2022-10-16T07:24:43;4.40;;;2.40;;
45944;SDS011;31655;48.972;10.686;2022-10-16T07:27:09;3.03;;;2.00;;
45944;SDS011;31655;48.972;10.686;2022-10-16T07:29:35;5.10;;;2.90;;
45944;SDS011;31655;48.972;10.686;2022-10-16T07:32:01;6.18;;;1.90;;
45944;SDS011;31655;48.972;10.686;2022-10-16T07:34:27;3.00;;;2.55;;
45944;SDS011;31655;48.972;10.686;2022-10-16T07:36:53;3.40;;;1.52;;
45944;SDS011;31655;48.972;10.686;2022-10-16T07:39:19;6.35;;;2.03;;
45944;SDS011;31655;48.972;10.686;2022-10-16T07:41:47;3.05;;;2.20;;
45944;SDS011;31655;48.972;10.686;2022-10-16T07:44:12;2.20;;;1.50;;
45944;SDS011;31655;48.972;10.686;2022-10-16T07:46:38;3.03;;;1.70;;
45944;SDS011;31655;48.972;10.686;2022-10-16T07:49:04;5.80;;;1.58;;
45944;SDS011;31655;48.972;10.686;2022-10-16T07:51:29;4.00;;;1.70;;
45944;SDS011;31655;48.972;10.686;2022-10-16T07:53:55;5.68;;;2.30;;
45944;SDS011;31655;48.972;10.686;2022-10-16T07:56:21;6.50;;;2.35;;
45944;SDS011;31655;48.972;10.686;2022-10-16T07:58:47;4.18;;;1.90;;
45944;SDS011;31655;48.972;10.686;2022-10-16T08:01:15;3.90;;;2.25;;
45944;SDS011;31655;48.972;10.686;2022-10-16T08:03:45;4.15;;;2.60;;
45944;SDS011;31655;48.972;10.686;2022-10-16T08:06:15;4.63;;;1.60;;
45944;SDS011;31655;48.972;10.686;2022-10-16T08:08:42;5.63;;;1.90;;
45944;SDS011;31655;48.972;10.686;2022-10-16T08:11:08;6.45;;;1.95;;
45944;SDS011;31655;48.972;10.686;2022-10-16T08:13:34;5.10;;;1.92;;
45944;SDS011;31655;48.972;10.686;2022-10-16T08:16:00;3.45;;;1.52;;
45944;SDS011;31655;48.972;10.686;2022-10-16T08:18:26;3.88;;;1.88;;
45944;SDS011;31655;48.972;10.686;2022-10-16T08:20:58;3.17;;;1.65;;
45944;SDS011;31655;48.972;10.686;2022-10-16T08:23:25;4.63;;;1.75;;
45944;SDS011;31655;48.972;10.686;2022-10-16T08:25:52;4.25;;;1.75;;
45944;SDS011;31655;48.972;10.686;2022-10-16T08:28:22;2.53;;;1.63;;
45944;SDS011;31655;48.972;10.686;2022-10-16T08:30:48;3.75;;;1.90;;
45944;SDS011;31655;48.972;10.686;2022-10-16T08:33:14;3.53;;;1.70;;
45944;SDS011;31655;48.972;10.686;2022-10-16T08:35:39;2.70;;;2.15;;
45944;SDS011;31655;48.972;10.686;2022-10-16T08:38:05;4.63;;;2.25;;
45944;SDS011;31655;48.972;10.686;2022-10-16T08:40:32;3.15;;;1.40;;
45944;SDS011;31655;48.972;10.686;2022-10-16T08:48:51;5.68;;;1.58;;
45944;SDS011;31655;48.972;10.686;2022-10-16T08:54:01;4.10;;;2.03;;
45944;SDS011;31655;48.972;10.686;2022-10-16T08:56:54;9.13;;;2.47;;
45944;SDS011;31655;48.972;10.686;2022-10-16T08:59:21;2.58;;;2.00;;
45944;SDS011;31655;48.972;10.686;2022-10-16T09:01:49;3.03;;;1.83;;
45944;SDS011;31655;48.972;10.686;2022-10-16T09:05:17;4.82;;;1.50;;
45944;SDS011;31655;48.972;10.686;2022-10-16T09:10:04;2.03;;;1.83;;
45944;SDS011;31655;48.972;10.686;2022-10-16T09:12:43;3.55;;;2.55;;
45944;SDS011;31655;48.972;10.686;2022-10-16T09:25:45;3.80;;;2.38;;
45944;SDS011;31655;48.972;10.686;2022-10-16T09:28:14;4.07;;;2.05;;
45944;SDS011;31655;48.972;10.686;2022-10-16T09:30:41;5.13;;;2.20;;
45944;SDS011;31655;48.972;10.686;2022-10-16T09:33:07;4.13;;;2.03;;
45944;SDS011;31655;48.972;10.686;2022-10-16T09:38:09;4.78;;;2.80;;
45944;SDS011;31655;48.972;10.686;2022-10-16T09:40:53;8.38;;;2.55;;
45944;SDS011;31655;48.972;10.686;2022-10-16T09:46:05;3.67;;;2.20;;
45944;SDS011;31655;48.972;10.686;2022-10-16T09:48:50;3.63;;;2.33;;
45944;SDS011;31655;48.972;10.686;2022-10-16T09:53:57;5.72;;;1.85;;
45944;SDS011;31655;48.972;10.686;2022-10-16T09:56:32;4.43;;;1.95;;
45944;SDS011;31655;48.972;10.686;2022-10-16T09:59:02;4.78;;;1.35;;
45944;SDS011;31655;48.972;10.686;2022-10-16T10:01:42;5.10;;;2.00;;
45944;SDS011;31655;48.972;10.686;2022-10-16T10:04:20;2.10;;;1.90;;
45944;SDS011;31655;48.972;10.686;2022-10-16T10:09:23;4.78;;;2.00;;
45944;SDS011;31655;48.972;10.686;2022-10-16T10:14:22;8.15;;;2.50;;
45944;SDS011;31655;48.972;10.686;2022-10-16T10:17:02;2.85;;;1.95;;
45944;SDS011;31655;48.972;10.686;2022-10-16T10:19:42;3.45;;;1.95;;
45944;SDS011;31655;48.972;10.686;2022-10-16T10:22:25;1.88;;;1.50;;
45944;SDS011;31655;48.972;10.686;2022-10-16T10:27:37;6.32;;;1.75;;
45944;SDS011;31655;48.972;10.686;2022-10-16T10:46:13;9.07;;;1.95;;
45944;SDS011;31655;48.972;10.686;2022-10-16T10:51:40;3.00;;;1.55;;
45944;SDS011;31655;48.972;10.686;2022-10-16T11:07:53;2.90;;;1.48;;
45944;SDS011;31655;48.972;10.686;2022-10-16T11:10:30;7.32;;;2.13;;
45944;SDS011;31655;48.972;10.686;2022-10-16T11:13:15;2.20;;;1.80;;
45944;SDS011;31655;48.972;10.686;2022-10-16T11:15:57;3.65;;;1.67;;
45944;SDS011;31655;48.972;10.686;2022-10-16T11:21:11;5.35;;;1.42;;
45944;SDS011;31655;48.972;10.686;2022-10-16T11:26:10;5.00;;;1.65;;
45944;SDS011;31655;48.972;10.686;2022-10-16T11:28:50;4.07;;;1.85;;
45944;SDS011;31655;48.972;10.686;2022-10-16T11:31:39;1.60;;;1.30;;
45944;SDS011;31655;48.972;10.686;2022-10-16T11:34:16;3.90;;;1.73;;
45944;SDS011;31655;48.972;10.686;2022-10-16T11:39:38;3.58;;;1.05;;
45944;SDS011;31655;48.972;10.686;2022-10-16T11:47:30;6.00;;;1.50;;
45944;SDS011;31655;48.972;10.686;2022-10-16T11:50:33;4.18;;;1.23;;
45944;SDS011;31655;48.972;10.686;2022-10-16T11:55:44;4.20;;;1.50;;
45944;SDS011;31655;48.972;10.686;2022-10-16T12:01:17;3.42;;;1.80;;
45944;SDS011;31655;48.972;10.686;2022-10-16T12:04:06;4.55;;;1.90;;
45944;SDS011;31655;48.972;10.686;2022-10-16T12:09:30;8.73;;;1.80;;
45944;SDS011;31655;48.972;10.686;2022-10-16T12:11:57;2.25;;;1.27;;
45944;SDS011;31655;48.972;10.686;2022-10-16T12:16:56;4.13;;;1.60;;
45944;SDS011;31655;48.972;10.686;2022-10-16T12:19:27;3.75;;;1.45;;
45944;SDS011;31655;48.972;10.686;2022-10-16T12:21:55;3.80;;;1.58;;
45944;SDS011;31655;48.972;10.686;2022-10-16T12:27:04;1.40;;;1.25;;
45944;SDS011;31655;48.972;10.686;2022-10-16T12:29:38;3.25;;;1.83;;
45944;SDS011;31655;48.972;10.686;2022-10-16T12:32:18;1.85;;;1.60;;
45944;SDS011;31655;48.972;10.686;2022-10-16T12:34:49;1.25;;;1.15;;
45944;SDS011;31655;48.972;10.686;2022-10-16T12:37:26;2.25;;;1.38;;
45944;SDS011;31655;48.972;10.686;2022-10-16T12:40:11;3.70;;;0.90;;
45944;SDS011;31655;48.972;10.686;2022-10-16T12:42:58;3.40;;;1.52;;
45944;SDS011;31655;48.972;10.686;2022-10-16T12:45:35;4.07;;;2.03;;
45944;SDS011;31655;48.972;10.686;2022-10-16T12:48:02;4.00;;;1.40;;
45944;SDS011;31655;48.972;10.686;2022-10-16T12:50:42;3.70;;;1.67;;
45944;SDS011;31655;48.972;10.686;2022-10-16T12:53:21;2.85;;;1.65;;
45944;SDS011;31655;48.972;10.686;2022-10-16T13:04:15;2.38;;;1.30;;
45944;SDS011;31655;48.972;10.686;2022-10-16T13:07:15;7.15;;;1.60;;
45944;SDS011;31655;48.972;10.686;2022-10-16T13:12:38;5.72;;;1.20;;
45944;SDS011;31655;48.972;10.686;2022-10-16T13:15:23;3.65;;;1.45;;
45944;SDS011;31655;48.972;10.686;2022-10-16T13:18:13;2.55;;;1.40;;
45944;SDS011;31655;48.972;10.686;2022-10-16T13:23:31;1.50;;;1.20;;
45944;SDS011;31655;48.972;10.686;2022-10-16T13:28:47;3.30;;;1.13;;
45944;SDS011;31655;48.972;10.686;2022-10-16T13:31:14;2.63;;;1.25;;
45944;SDS011;31655;48.972;10.686;2022-10-16T13:33:47;4.40;;;1.50;;
45944;SDS011;31655;48.972;10.686;2022-10-16T13:36:28;3.03;;;1.65;;
45944;SDS011;31655;48.972;10.686;2022-10-16T13:38:59;3.38;;;1.80;;
45944;SDS011;31655;48.972;10.686;2022-10-16T13:41:34;3.17;;;1.30;;
45944;SDS011;31655;48.972;10.686;2022-10-16T13:44:00;2.53;;;0.90;;
45944;SDS011;31655;48.972;10.686;2022-10-16T13:46:26;3.22;;;1.20;;
45944;SDS011;31655;48.972;10.686;2022-10-16T13:51:27;1.90;;;1.45;;
45944;SDS011;31655;48.972;10.686;2022-10-16T13:53:57;1.98;;;1.30;;
45944;SDS011;31655;48.972;10.686;2022-10-16T13:56:27;1.85;;;1.40;;
45944;SDS011;31655;48.972;10.686;2022-10-16T13:59:05;5.15;;;1.05;;
45944;SDS011;31655;48.972;10.686;2022-10-16T14:01:35;2.13;;;1.77;;
45944;SDS011;31655;48.972;10.686;2022-10-16T14:04:07;4.93;;;1.40;;
45944;SDS011;31655;48.972;10.686;2022-10-16T14:06:35;6.18;;;1.23;;
45944;SDS011;31655;48.972;10.686;2022-10-16T14:09:05;3.97;;;1.20;;
45944;SDS011;31655;48.972;10.686;2022-10-16T14:11:45;1.65;;;1.30;;
45944;SDS011;31655;48.972;10.686;2022-10-16T14:14:18;3.30;;;1.20;;
45944;SDS011;31655;48.972;10.686;2022-10-16T14:16:44;2.03;;;1.23;;
45944;SDS011;31655;48.972;10.686;2022-10-16T14:21:54;1.20;;;1.10;;
45944;SDS011;31655;48.972;10.686;2022-10-16T14:24:42;1.25;;;1.13;;
45944;SDS011;31655;48.972;10.686;2022-10-16T14:27:28;1.65;;;1.55;;
45944;SDS011;31655;48.972;10.686;2022-10-16T14:32:37;2.88;;;1.23;;
45944;SDS011;31655;48.972;10.686;2022-10-16T14:35:22;2.15;;;1.35;;
45944;SDS011;31655;48.972;10.686;2022-10-16T14:37:53;7.85;;;1.45;;
45944;SDS011;31655;48.972;10.686;2022-10-16T14:40:22;3.10;;;1.40;;
45944;SDS011;31655;48.972;10.686;2022-10-16T14:42:50;1.40;;;1.10;;
45944;SDS011;31655;48.972;10.686;2022-10-16T14:45:20;1.25;;;1.10;;
45944;SDS011;31655;48.972;10.686;2022-10-16T14:48:13;5.15;;;1.10;;
45944;SDS011;31655;48.972;10.686;2022-10-16T14:50:42;8.02;;;1.67;;
45944;SDS011;31655;48.972;10.686;2022-10-16T14:53:09;5.03;;;1.20;;
45944;SDS011;31655;48.972;10.686;2022-10-16T14:55:37;3.97;;;1.00;;
45944;SDS011;31655;48.972;10.686;2022-10-16T14:58:03;4.28;;;1.30;;
45944;SDS011;31655;48.972;10.686;2022-10-16T15:00:29;1.48;;;1.15;;
45944;SDS011;31655;48.972;10.686;2022-10-16T15:02:55;1.75;;;1.25;;
45944;SDS011;31655;48.972;10.686;2022-10-16T15:05:24;5.90;;;1.33;;
45944;SDS011;31655;48.972;10.686;2022-10-16T15:07:52;2.13;;;1.30;;
45944;SDS011;31655;48.972;10.686;2022-10-16T15:10:19;3.97;;;1.42;;
45944;SDS011;31655;48.972;10.686;2022-10-16T15:12:46;6.60;;;1.65;;
45944;SDS011;31655;48.972;10.686;2022-10-16T15:17:56;3.67;;;1.58;;
45944;SDS011;31655;48.972;10.686;2022-10-16T15:20:26;2.20;;;1.20;;
45944;SDS011;31655;48.972;10.686;2022-10-16T15:22:55;1.88;;;1.15;;
45944;SDS011;31655;48.972;10.686;2022-10-16T15:25:29;4.35;;;1.63;;
45944;SDS011;31655;48.972;10.686;2022-10-16T15:27:58;3.55;;;1.20;;
45944;SDS011;31655;48.972;10.686;2022-10-16T15:30:25;3.63;;;1.48;;
45944;SDS011;31655;48.972;10.686;2022-10-16T15:32:52;3.97;;;1.10;;
45944;SDS011;31655;48.972;10.686;2022-10-16T15:35:18;3.30;;;1.20;;
45944;SDS011;31655;48.972;10.686;2022-10-16T15:37:44;4.13;;;1.45;;
45944;SDS011;31655;48.972;10.686;2022-10-16T15:40:11;3.08;;;1.67;;
45944;SDS011;31655;48.972;10.686;2022-10-16T15:42:37;3.15;;;1.40;;
45944;SDS011;31655;48.972;10.686;2022-10-16T15:45:03;4.97;;;1.52;;
45944;SDS011;31655;48.972;10.686;2022-10-16T15:47:29;4.85;;;1.50;;
45944;SDS011;31655;48.972;10.686;2022-10-16T15:49:55;8.60;;;3.63;;
45944;SDS011;31655;48.972;10.686;2022-10-16T15:52:21;2.95;;;1.27;;
45944;SDS011;31655;48.972;10.686;2022-10-16T15:54:48;1.88;;;1.30;;
45944;SDS011;31655;48.972;10.686;2022-10-16T15:57:15;3.15;;;1.30;;
45944;SDS011;31655;48.972;10.686;2022-10-16T15:59:41;4.18;;;1.90;;
45944;SDS011;31655;48.972;10.686;2022-10-16T16:02:08;7.90;;;2.00;;
45944;SDS011;31655;48.972;10.686;2022-10-16T16:04:34;4.43;;;2.20;;
45944;SDS011;31655;48.972;10.686;2022-10-16T16:07:01;6.00;;;3.38;;
45944;SDS011;31655;48.972;10.686;2022-10-16T16:09:30;4.50;;;1.75;;
45944;SDS011;31655;48.972;10.686;2022-10-16T16:11:56;1.67;;;1.40;;
45944;SDS011;31655;48.972;10.686;2022-10-16T16:14:25;6.25;;;1.92;;
45944;SDS011;31655;48.972;10.686;2022-10-16T16:16:52;4.55;;;1.80;;
45944;SDS011;31655;48.972;10.686;2022-10-16T16:19:19;4.75;;;2.03;;
45944;SDS011;31655;48.972;10.686;2022-10-16T16:21:46;4.97;;;1.60;;
45944;SDS011;31655;48.972;10.686;2022-10-16T16:24:12;3.25;;;1.65;;
45944;SDS011;31655;48.972;10.686;2022-10-16T16:26:38;2.33;;;1.60;;
45944;SDS011;31655;48.972;10.686;2022-10-16T16:29:08;7.93;;;1.60;;
45944;SDS011;31655;48.972;10.686;2022-10-16T16:31:37;4.95;;;1.65;;
45944;SDS011;31655;48.972;10.686;2022-10-16T16:34:03;5.80;;;1.40;;
45944;SDS011;31655;48.972;10.686;2022-10-16T16:36:29;2.88;;;1.40;;
45944;SDS011;31655;48.972;10.686;2022-10-16T16:38:55;12.02;;;1.83;;
45944;SDS011;31655;48.972;10.686;2022-10-16T16:41:23;2.45;;;1.25;;
45944;SDS011;31655;48.972;10.686;2022-10-16T16:43:50;3.00;;;1.27;;
45944;SDS011;31655;48.972;10.686;2022-10-16T16:46:17;7.40;;;1.67;;
45944;SDS011;31655;48.972;10.686;2022-10-16T16:48:43;4.88;;;2.08;;
45944;SDS011;31655;48.972;10.686;2022-10-16T16:51:11;2.83;;;1.85;;
45944;SDS011;31655;48.972;10.686;2022-10-16T16:53:43;2.75;;;2.45;;
45944;SDS011;31655;48.972;10.686;2022-10-16T16:56:10;4.43;;;2.83;;
45944;SDS011;31655;48.972;10.686;2022-10-16T16:58:35;10.93;;;4.22;;
45944;SDS011;31655;48.972;10.686;2022-10-16T17:01:01;36.58;;;16.95;;
45944;SDS011;31655;48.972;10.686;2022-10-16T17:03:31;30.65;;;14.73;;
45944;SDS011;31655;48.972;10.686;2022-10-16T17:06:06;24.20;;;10.10;;
45944;SDS011;31655;48.972;10.686;2022-10-16T17:08:35;14.40;;;6.72;;